sensor_id;sensor_type;location;lat;lon;timestamp;temperature;humidity
10149;DHT22;5115;50.920;6.376;2022-10-30T00:00:32;17.20;99.90
10149;DHT22;5115;50.920;6.376;2022-10-30T00:02:58;17.10;99.90
10149;DHT22;5115;50.920;6.376;2022-10-30T00:05:24;17.20;99.90
10149;DHT22;5115;50.920;6.376;2022-10-30T00:07:50;17.70;99.90
10149;DHT22;5115;50.920;6.376;2022-10-30T00:10:16;17.10;99.90
10149;DHT22;5115;50.920;6.376;2022-10-30T00:12:42;17.00;99.90
10149;DHT22;5115;50.920;6.376;2022-10-30T00:15:09;17.20;99.90
10149;DHT22;5115;50.920;6.376;2022-10-30T00:17:34;17.20;99.90
10149;DHT22;5115;50.920;6.376;2022-10-30T00:20:00;17.20;99.90
10149;DHT22;5115;50.920;6.376;2022-10-30T00:22:25;17.20;99.90
10149;DHT22;5115;50.920;6.376;2022-10-30T00:24:51;17.00;99.90
10149;DHT22;5115;50.920;6.376;2022-10-30T00:27:17;17.00;99.90
10149;DHT22;5115;50.920;6.376;2022-10-30T00:29:43;17.00;99.90
10149;DHT22;5115;50.920;6.376;2022-10-30T00:32:08;17.00;99.90
10149;DHT22;5115;50.920;6.376;2022-10-30T00:34:34;17.00;99.90
10149;DHT22;5115;50.920;6.376;2022-10-30T00:37:00;16.90;99.90
10149;DHT22;5115;50.920;6.376;2022-10-30T00:39:25;16.90;99.90
10149;DHT22;5115;50.920;6.376;2022-10-30T00:41:51;16.90;99.90
10149;DHT22;5115;50.920;6.376;2022-10-30T00:49:38;16.80;99.90
10149;DHT22;5115;50.920;6.376;2022-10-30T00:52:08;16.70;99.90
10149;DHT22;5115;50.920;6.376;2022-10-30T00:54:34;16.70;99.90
10149;DHT22;5115;50.920;6.376;2022-10-30T00:57:02;16.60;99.90
10149;DHT22;5115;50.920;6.376;2022-10-30T00:59:32;16.60;99.90
10149;DHT22;5115;50.920;6.376;2022-10-30T01:02:00;16.60;99.90
10149;DHT22;5115;50.920;6.376;2022-10-30T01:04:26;16.60;99.90
10149;DHT22;5115;50.920;6.376;2022-10-30T01:06:53;16.50;99.90
10149;DHT22;5115;50.920;6.376;2022-10-30T01:09:19;16.50;99.90
10149;DHT22;5115;50.920;6.376;2022-10-30T01:11:45;16.40;99.90
10149;DHT22;5115;50.920;6.376;2022-10-30T01:14:12;16.40;99.90
10149;DHT22;5115;50.920;6.376;2022-10-30T01:22:20;16.20;99.90
10149;DHT22;5115;50.920;6.376;2022-10-30T01:36:38;16.20;99.90
10149;DHT22;5115;50.920;6.376;2022-10-30T01:39:13;16.20;99.90
10149;DHT22;5115;50.920;6.376;2022-10-30T01:41:39;16.10;99.90
10149;DHT22;5115;50.920;6.376;2022-10-30T01:44:09;16.10;99.90
10149;DHT22;5115;50.920;6.376;2022-10-30T01:47:35;16.00;99.90
10149;DHT22;5115;50.920;6.376;2022-10-30T01:53:28;16.00;99.90
10149;DHT22;5115;50.920;6.376;2022-10-30T01:58:36;15.90;99.90
10149;DHT22;5115;50.920;6.376;2022-10-30T02:01:05;15.90;99.90
10149;DHT22;5115;50.920;6.376;2022-10-30T02:03:31;15.90;99.90
10149;DHT22;5115;50.920;6.376;2022-10-30T02:05:56;15.90;99.90
10149;DHT22;5115;50.920;6.376;2022-10-30T02:08:22;15.90;99.90
10149;DHT22;5115;50.920;6.376;2022-10-30T02:10:50;15.90;99.90
10149;DHT22;5115;50.920;6.376;2022-10-30T02:13:16;15.80;99.90
10149;DHT22;5115;50.920;6.376;2022-10-30T02:15:43;15.80;99.90
10149;DHT22;5115;50.920;6.376;2022-10-30T02:18:09;15.70;99.90
10149;DHT22;5115;50.920;6.376;2022-10-30T02:20:35;15.70;99.90
10149;DHT22;5115;50.920;6.376;2022-10-30T02:23:01;15.60;99.90
10149;DHT22;5115;50.920;6.376;2022-10-30T02:25:27;14.70;99.90
10149;DHT22;5115;50.920;6.376;2022-10-30T02:27:52;15.60;99.90
10149;DHT22;5115;50.920;6.376;2022-10-30T02:30:18;15.50;99.90
10149;DHT22;5115;50.920;6.376;2022-10-30T02:32:43;15.50;99.90
10149;DHT22;5115;50.920;6.376;2022-10-30T02:35:09;15.50;99.90
10149;DHT22;5115;50.920;6.376;2022-10-30T02:37:35;15.50;99.90
10149;DHT22;5115;50.920;6.376;2022-10-30T02:40:02;15.50;99.90
10149;DHT22;5115;50.920;6.376;2022-10-30T02:42:27;15.50;99.90
10149;DHT22;5115;50.920;6.376;2022-10-30T02:44:53;15.50;99.90
10149;DHT22;5115;50.920;6.376;2022-10-30T02:47:18;15.40;99.90
10149;DHT22;5115;50.920;6.376;2022-10-30T02:49:44;15.40;99.90
10149;DHT22;5115;50.920;6.376;2022-10-30T02:52:09;15.30;99.90
10149;DHT22;5115;50.920;6.376;2022-10-30T02:54:35;15.30;99.90
10149;DHT22;5115;50.920;6.376;2022-10-30T02:57:01;15.20;99.90
10149;DHT22;5115;50.920;6.376;2022-10-30T02:59:26;15.20;99.90
10149;DHT22;5115;50.920;6.376;2022-10-30T03:01:52;15.20;99.90
10149;DHT22;5115;50.920;6.376;2022-10-30T03:04:20;15.00;99.90
10149;DHT22;5115;50.920;6.376;2022-10-30T03:06:46;15.20;99.90
10149;DHT22;5115;50.920;6.376;2022-10-30T03:09:11;15.10;99.90
10149;DHT22;5115;50.920;6.376;2022-10-30T03:11:37;15.10;99.90
10149;DHT22;5115;50.920;6.376;2022-10-30T03:14:02;15.00;99.90
10149;DHT22;5115;50.920;6.376;2022-10-30T03:16:28;15.00;99.90
10149;DHT22;5115;50.920;6.376;2022-10-30T03:18:55;15.00;99.90
10149;DHT22;5115;50.920;6.376;2022-10-30T03:21:23;15.00;99.90
10149;DHT22;5115;50.920;6.376;2022-10-30T03:23:49;15.00;99.90
10149;DHT22;5115;50.920;6.376;2022-10-30T03:26:15;14.90;99.90
10149;DHT22;5115;50.920;6.376;2022-10-30T03:28:41;14.90;99.90
10149;DHT22;5115;50.920;6.376;2022-10-30T03:31:09;14.90;99.90
10149;DHT22;5115;50.920;6.376;2022-10-30T03:33:36;14.80;99.90
10149;DHT22;5115;50.920;6.376;2022-10-30T03:36:03;14.80;99.90
10149;DHT22;5115;50.920;6.376;2022-10-30T03:38:29;14.80;99.90
10149;DHT22;5115;50.920;6.376;2022-10-30T03:40:55;14.80;99.90
10149;DHT22;5115;50.920;6.376;2022-10-30T03:43:20;14.80;99.90
10149;DHT22;5115;50.920;6.376;2022-10-30T03:45:51;14.80;99.90
10149;DHT22;5115;50.920;6.376;2022-10-30T03:48:17;14.70;99.90
10149;DHT22;5115;50.920;6.376;2022-10-30T03:50:43;14.60;99.90
10149;DHT22;5115;50.920;6.376;2022-10-30T03:53:09;14.60;99.90
10149;DHT22;5115;50.920;6.376;2022-10-30T03:55:35;14.50;99.90
10149;DHT22;5115;50.920;6.376;2022-10-30T03:58:01;14.40;99.90
10149;DHT22;5115;50.920;6.376;2022-10-30T04:00:26;14.40;99.90
10149;DHT22;5115;50.920;6.376;2022-10-30T04:02:52;14.40;99.90
10149;DHT22;5115;50.920;6.376;2022-10-30T04:05:20;14.40;99.90
10149;DHT22;5115;50.920;6.376;2022-10-30T04:07:46;14.40;99.90
10149;DHT22;5115;50.920;6.376;2022-10-30T04:10:13;14.40;99.90
10149;DHT22;5115;50.920;6.376;2022-10-30T04:12:39;14.40;99.90
10149;DHT22;5115;50.920;6.376;2022-10-30T04:15:06;14.40;99.90
10149;DHT22;5115;50.920;6.376;2022-10-30T04:17:32;14.40;99.90
10149;DHT22;5115;50.920;6.376;2022-10-30T04:19:58;14.40;99.90
10149;DHT22;5115;50.920;6.376;2022-10-30T04:22:24;14.40;99.90
10149;DHT22;5115;50.920;6.376;2022-10-30T04:24:49;14.40;99.90
10149;DHT22;5115;50.920;6.376;2022-10-30T04:27:15;14.40;99.90
10149;DHT22;5115;50.920;6.376;2022-10-30T04:29:41;14.30;99.90
10149;DHT22;5115;50.920;6.376;2022-10-30T04:32:10;14.20;99.90
10149;DHT22;5115;50.920;6.376;2022-10-30T04:34:35;14.10;99.90
10149;DHT22;5115;50.920;6.376;2022-10-30T04:37:04;14.10;99.90
10149;DHT22;5115;50.920;6.376;2022-10-30T04:39:29;14.10;99.90
10149;DHT22;5115;50.920;6.376;2022-10-30T04:41:55;14.10;99.90
10149;DHT22;5115;50.920;6.376;2022-10-30T04:44:20;14.10;99.90
10149;DHT22;5115;50.920;6.376;2022-10-30T04:46:46;14.10;99.90
10149;DHT22;5115;50.920;6.376;2022-10-30T04:49:11;14.10;99.90
10149;DHT22;5115;50.920;6.376;2022-10-30T04:51:37;14.10;99.90
10149;DHT22;5115;50.920;6.376;2022-10-30T04:54:02;14.00;99.90
10149;DHT22;5115;50.920;6.376;2022-10-30T04:56:28;14.00;99.90
10149;DHT22;5115;50.920;6.376;2022-10-30T04:58:53;13.90;99.90
10149;DHT22;5115;50.920;6.376;2022-10-30T05:01:19;13.90;99.90
10149;DHT22;5115;50.920;6.376;2022-10-30T05:03:44;13.90;99.90
10149;DHT22;5115;50.920;6.376;2022-10-30T05:06:21;13.90;99.90
10149;DHT22;5115;50.920;6.376;2022-10-30T05:08:48;13.90;99.90
10149;DHT22;5115;50.920;6.376;2022-10-30T05:11:14;13.90;99.90
10149;DHT22;5115;50.920;6.376;2022-10-30T05:13:39;13.90;99.90
10149;DHT22;5115;50.920;6.376;2022-10-30T05:16:05;13.90;99.90
10149;DHT22;5115;50.920;6.376;2022-10-30T05:18:31;13.80;99.90
10149;DHT22;5115;50.920;6.376;2022-10-30T05:20:56;13.70;99.90
10149;DHT22;5115;50.920;6.376;2022-10-30T05:23:22;13.70;99.90
10149;DHT22;5115;50.920;6.376;2022-10-30T05:25:47;13.70;99.90
10149;DHT22;5115;50.920;6.376;2022-10-30T05:28:13;13.70;99.90
10149;DHT22;5115;50.920;6.376;2022-10-30T05:30:38;13.70;99.90
10149;DHT22;5115;50.920;6.376;2022-10-30T05:33:06;13.70;99.90
10149;DHT22;5115;50.920;6.376;2022-10-30T05:35:32;13.70;99.90
10149;DHT22;5115;50.920;6.376;2022-10-30T05:37:59;13.70;99.90
10149;DHT22;5115;50.920;6.376;2022-10-30T05:40:25;13.70;99.90
10149;DHT22;5115;50.920;6.376;2022-10-30T05:42:51;13.70;99.90
10149;DHT22;5115;50.920;6.376;2022-10-30T05:45:16;13.70;99.90
10149;DHT22;5115;50.920;6.376;2022-10-30T05:47:42;13.70;99.90
10149;DHT22;5115;50.920;6.376;2022-10-30T05:50:08;13.70;99.90
10149;DHT22;5115;50.920;6.376;2022-10-30T05:52:34;13.70;99.90
10149;DHT22;5115;50.920;6.376;2022-10-30T05:55:00;13.70;99.90
10149;DHT22;5115;50.920;6.376;2022-10-30T05:57:29;13.70;99.90
10149;DHT22;5115;50.920;6.376;2022-10-30T05:59:55;13.70;99.90
10149;DHT22;5115;50.920;6.376;2022-10-30T06:02:20;13.70;99.90
10149;DHT22;5115;50.920;6.376;2022-10-30T06:04:46;13.70;99.90
10149;DHT22;5115;50.920;6.376;2022-10-30T06:07:12;13.70;99.90
10149;DHT22;5115;50.920;6.376;2022-10-30T06:09:38;13.70;99.90
10149;DHT22;5115;50.920;6.376;2022-10-30T06:12:04;13.70;99.90
10149;DHT22;5115;50.920;6.376;2022-10-30T06:14:29;13.60;99.90
10149;DHT22;5115;50.920;6.376;2022-10-30T06:16:55;13.50;99.90
10149;DHT22;5115;50.920;6.376;2022-10-30T06:19:20;13.50;99.90
10149;DHT22;5115;50.920;6.376;2022-10-30T06:21:46;13.50;99.90
10149;DHT22;5115;50.920;6.376;2022-10-30T06:24:12;13.40;99.90
10149;DHT22;5115;50.920;6.376;2022-10-30T06:26:38;13.40;99.90
10149;DHT22;5115;50.920;6.376;2022-10-30T06:29:03;13.30;99.90
10149;DHT22;5115;50.920;6.376;2022-10-30T06:31:29;13.30;99.90
10149;DHT22;5115;50.920;6.376;2022-10-30T06:33:54;13.40;99.90
10149;DHT22;5115;50.920;6.376;2022-10-30T06:36:20;13.40;99.90
10149;DHT22;5115;50.920;6.376;2022-10-30T06:38:45;13.50;99.90
10149;DHT22;5115;50.920;6.376;2022-10-30T06:41:11;13.60;99.90
10149;DHT22;5115;50.920;6.376;2022-10-30T06:43:37;14.60;99.90
10149;DHT22;5115;50.920;6.376;2022-10-30T06:46:02;13.70;99.90
10149;DHT22;5115;50.920;6.376;2022-10-30T06:48:28;13.70;99.90
10149;DHT22;5115;50.920;6.376;2022-10-30T06:50:55;13.70;99.90
10149;DHT22;5115;50.920;6.376;2022-10-30T06:53:20;13.70;99.90
10149;DHT22;5115;50.920;6.376;2022-10-30T06:55:56;13.80;99.90
10149;DHT22;5115;50.920;6.376;2022-10-30T06:58:22;14.00;99.90
10149;DHT22;5115;50.920;6.376;2022-10-30T07:00:48;14.10;99.90
10149;DHT22;5115;50.920;6.376;2022-10-30T07:03:13;14.20;99.90
10149;DHT22;5115;50.920;6.376;2022-10-30T07:05:39;14.40;99.90
10149;DHT22;5115;50.920;6.376;2022-10-30T07:08:04;14.80;99.90
10149;DHT22;5115;50.920;6.376;2022-10-30T07:10:30;15.40;99.90
10149;DHT22;5115;50.920;6.376;2022-10-30T07:12:56;16.00;99.90
10149;DHT22;5115;50.920;6.376;2022-10-30T07:15:22;16.30;99.90
10149;DHT22;5115;50.920;6.376;2022-10-30T07:17:56;16.60;99.90
10149;DHT22;5115;50.920;6.376;2022-10-30T07:20:23;17.10;99.90
10149;DHT22;5115;50.920;6.376;2022-10-30T07:22:49;17.60;99.90
10149;DHT22;5115;50.920;6.376;2022-10-30T07:25:15;18.50;99.90
10149;DHT22;5115;50.920;6.376;2022-10-30T07:27:44;19.10;99.90
10149;DHT22;5115;50.920;6.376;2022-10-30T07:30:11;19.80;99.90
10149;DHT22;5115;50.920;6.376;2022-10-30T07:32:37;20.40;99.90
10149;DHT22;5115;50.920;6.376;2022-10-30T07:35:03;20.80;99.90
10149;DHT22;5115;50.920;6.376;2022-10-30T07:37:29;20.90;99.90
10149;DHT22;5115;50.920;6.376;2022-10-30T07:39:54;20.80;99.90
10149;DHT22;5115;50.920;6.376;2022-10-30T07:42:20;21.00;99.90
10149;DHT22;5115;50.920;6.376;2022-10-30T07:44:45;21.40;99.90
10149;DHT22;5115;50.920;6.376;2022-10-30T07:47:11;21.70;99.90
10149;DHT22;5115;50.920;6.376;2022-10-30T07:49:36;21.80;99.90
10149;DHT22;5115;50.920;6.376;2022-10-30T07:52:02;22.00;99.90
10149;DHT22;5115;50.920;6.376;2022-10-30T07:54:27;21.90;99.90
10149;DHT22;5115;50.920;6.376;2022-10-30T07:56:53;21.80;99.90
10149;DHT22;5115;50.920;6.376;2022-10-30T07:59:18;21.80;99.90
10149;DHT22;5115;50.920;6.376;2022-10-30T08:01:44;21.80;99.90
10149;DHT22;5115;50.920;6.376;2022-10-30T08:04:09;21.80;99.90
10149;DHT22;5115;50.920;6.376;2022-10-30T08:06:38;22.00;99.90
10149;DHT22;5115;50.920;6.376;2022-10-30T08:09:04;22.10;99.90
10149;DHT22;5115;50.920;6.376;2022-10-30T08:11:29;22.30;99.90
10149;DHT22;5115;50.920;6.376;2022-10-30T08:13:55;22.60;99.90
10149;DHT22;5115;50.920;6.376;2022-10-30T08:16:21;22.60;99.90
10149;DHT22;5115;50.920;6.376;2022-10-30T08:18:46;22.50;99.90
10149;DHT22;5115;50.920;6.376;2022-10-30T08:21:12;22.50;99.90
10149;DHT22;5115;50.920;6.376;2022-10-30T08:23:37;22.80;99.90
10149;DHT22;5115;50.920;6.376;2022-10-30T08:26:03;23.00;99.90
10149;DHT22;5115;50.920;6.376;2022-10-30T08:28:32;23.40;99.90
10149;DHT22;5115;50.920;6.376;2022-10-30T08:30:59;24.10;99.90
10149;DHT22;5115;50.920;6.376;2022-10-30T08:33:25;24.70;99.90
10149;DHT22;5115;50.920;6.376;2022-10-30T08:35:52;25.20;99.90
10149;DHT22;5115;50.920;6.376;2022-10-30T08:38:18;25.50;99.90
10149;DHT22;5115;50.920;6.376;2022-10-30T08:40:44;25.60;99.90
10149;DHT22;5115;50.920;6.376;2022-10-30T08:43:10;26.20;99.90
10149;DHT22;5115;50.920;6.376;2022-10-30T08:45:37;26.60;99.90
10149;DHT22;5115;50.920;6.376;2022-10-30T08:48:04;26.90;99.90
10149;DHT22;5115;50.920;6.376;2022-10-30T08:50:31;26.80;99.90
10149;DHT22;5115;50.920;6.376;2022-10-30T08:53:05;26.90;99.90
10149;DHT22;5115;50.920;6.376;2022-10-30T08:55:32;27.30;99.90
10149;DHT22;5115;50.920;6.376;2022-10-30T08:57:58;27.20;99.90
10149;DHT22;5115;50.920;6.376;2022-10-30T09:00:24;27.40;99.90
10149;DHT22;5115;50.920;6.376;2022-10-30T09:02:50;27.20;99.90
10149;DHT22;5115;50.920;6.376;2022-10-30T09:05:15;26.30;99.90
10149;DHT22;5115;50.920;6.376;2022-10-30T09:07:41;26.50;99.90
10149;DHT22;5115;50.920;6.376;2022-10-30T09:10:07;27.50;99.90
10149;DHT22;5115;50.920;6.376;2022-10-30T09:12:33;28.20;99.90
10149;DHT22;5115;50.920;6.376;2022-10-30T09:15:02;29.10;99.90
10149;DHT22;5115;50.920;6.376;2022-10-30T09:17:28;29.70;99.90
10149;DHT22;5115;50.920;6.376;2022-10-30T09:19:54;29.80;99.90
10149;DHT22;5115;50.920;6.376;2022-10-30T09:22:19;29.70;99.90
10149;DHT22;5115;50.920;6.376;2022-10-30T09:24:45;29.70;99.90
10149;DHT22;5115;50.920;6.376;2022-10-30T09:27:10;29.70;99.90
10149;DHT22;5115;50.920;6.376;2022-10-30T09:29:36;30.00;99.90
10149;DHT22;5115;50.920;6.376;2022-10-30T09:32:02;30.10;99.90
10149;DHT22;5115;50.920;6.376;2022-10-30T09:34:32;30.30;99.90
10149;DHT22;5115;50.920;6.376;2022-10-30T09:36:58;30.00;99.90
10149;DHT22;5115;50.920;6.376;2022-10-30T09:39:24;29.90;99.90
10149;DHT22;5115;50.920;6.376;2022-10-30T09:52:56;29.80;99.90
10149;DHT22;5115;50.920;6.376;2022-10-30T10:01:24;28.50;99.90
10149;DHT22;5115;50.920;6.376;2022-10-30T10:04:14;29.30;99.90
10149;DHT22;5115;50.920;6.376;2022-10-30T10:06:44;29.50;99.90
10149;DHT22;5115;50.920;6.376;2022-10-30T10:09:22;29.20;99.90
10149;DHT22;5115;50.920;6.376;2022-10-30T10:11:59;28.80;99.90
10149;DHT22;5115;50.920;6.376;2022-10-30T10:14:28;28.80;99.90
10149;DHT22;5115;50.920;6.376;2022-10-30T10:16:56;28.60;99.90
10149;DHT22;5115;50.920;6.376;2022-10-30T10:19:51;27.90;99.90
10149;DHT22;5115;50.920;6.376;2022-10-30T10:22:23;27.50;99.90
10149;DHT22;5115;50.920;6.376;2022-10-30T10:24:51;27.30;99.90
10149;DHT22;5115;50.920;6.376;2022-10-30T10:49:12;25.70;99.90
10149;DHT22;5115;50.920;6.376;2022-10-30T10:51:44;25.80;99.90
10149;DHT22;5115;50.920;6.376;2022-10-30T10:54:26;26.20;99.90
10149;DHT22;5115;50.920;6.376;2022-10-30T10:56:55;26.10;99.90
10149;DHT22;5115;50.920;6.376;2022-10-30T11:02:08;26.10;99.90
10149;DHT22;5115;50.920;6.376;2022-10-30T11:04:44;26.20;99.90
10149;DHT22;5115;50.920;6.376;2022-10-30T11:07:22;26.00;99.90
10149;DHT22;5115;50.920;6.376;2022-10-30T11:09:51;26.10;99.90
10149;DHT22;5115;50.920;6.376;2022-10-30T11:12:25;26.30;99.90
10149;DHT22;5115;50.920;6.376;2022-10-30T11:14:51;25.80;99.90
10149;DHT22;5115;50.920;6.376;2022-10-30T11:17:24;25.40;99.90
10149;DHT22;5115;50.920;6.376;2022-10-30T11:19:57;25.30;99.90
10149;DHT22;5115;50.920;6.376;2022-10-30T11:22:30;25.30;99.90
10149;DHT22;5115;50.920;6.376;2022-10-30T11:25:23;25.50;99.90
10149;DHT22;5115;50.920;6.376;2022-10-30T11:27:54;25.60;99.90
10149;DHT22;5115;50.920;6.376;2022-10-30T11:30:23;25.30;99.90
10149;DHT22;5115;50.920;6.376;2022-10-30T11:32:49;25.30;99.90
10149;DHT22;5115;50.920;6.376;2022-10-30T11:35:17;25.50;99.90
10149;DHT22;5115;50.920;6.376;2022-10-30T11:37:46;25.40;99.90
10149;DHT22;5115;50.920;6.376;2022-10-30T11:43:01;25.40;99.90
10149;DHT22;5115;50.920;6.376;2022-10-30T11:45:27;25.40;99.90
10149;DHT22;5115;50.920;6.376;2022-10-30T11:47:55;25.00;99.90
10149;DHT22;5115;50.920;6.376;2022-10-30T11:50:23;25.10;99.90
10149;DHT22;5115;50.920;6.376;2022-10-30T11:52:52;24.90;99.90
10149;DHT22;5115;50.920;6.376;2022-10-30T11:55:23;24.90;99.90
10149;DHT22;5115;50.920;6.376;2022-10-30T11:57:54;24.90;99.90
10149;DHT22;5115;50.920;6.376;2022-10-30T12:00:31;24.70;99.90
10149;DHT22;5115;50.920;6.376;2022-10-30T12:02:59;24.60;99.90
10149;DHT22;5115;50.920;6.376;2022-10-30T12:10:32;24.30;99.90
10149;DHT22;5115;50.920;6.376;2022-10-30T12:13:04;24.20;99.90
10149;DHT22;5115;50.920;6.376;2022-10-30T12:15:34;24.20;99.90
10149;DHT22;5115;50.920;6.376;2022-10-30T12:18:03;23.90;99.90
10149;DHT22;5115;50.920;6.376;2022-10-30T12:20:29;23.80;99.90
10149;DHT22;5115;50.920;6.376;2022-10-30T12:22:56;23.90;99.90
10149;DHT22;5115;50.920;6.376;2022-10-30T12:25:30;23.90;99.90
10149;DHT22;5115;50.920;6.376;2022-10-30T12:28:07;23.60;99.90
10149;DHT22;5115;50.920;6.376;2022-10-30T12:30:51;23.60;99.90
10149;DHT22;5115;50.920;6.376;2022-10-30T12:33:23;23.50;99.90
10149;DHT22;5115;50.920;6.376;2022-10-30T12:35:58;23.40;99.90
10149;DHT22;5115;50.920;6.376;2022-10-30T12:38:27;23.30;99.90
10149;DHT22;5115;50.920;6.376;2022-10-30T12:41:11;23.30;99.90
10149;DHT22;5115;50.920;6.376;2022-10-30T12:43:41;23.50;99.90
10149;DHT22;5115;50.920;6.376;2022-10-30T12:46:28;23.60;99.90
10149;DHT22;5115;50.920;6.376;2022-10-30T12:52:00;23.50;99.90
10149;DHT22;5115;50.920;6.376;2022-10-30T12:57:14;23.60;99.90
10149;DHT22;5115;50.920;6.376;2022-10-30T13:00:00;23.60;99.90
10149;DHT22;5115;50.920;6.376;2022-10-30T13:02:56;23.70;99.90
10149;DHT22;5115;50.920;6.376;2022-10-30T13:05:29;23.70;99.90
10149;DHT22;5115;50.920;6.376;2022-10-30T13:08:03;23.70;99.90
10149;DHT22;5115;50.920;6.376;2022-10-30T13:10:41;23.70;99.90
10149;DHT22;5115;50.920;6.376;2022-10-30T13:13:12;23.70;99.90
10149;DHT22;5115;50.920;6.376;2022-10-30T13:15:54;23.90;99.90
10149;DHT22;5115;50.920;6.376;2022-10-30T13:18:23;23.90;99.90
10149;DHT22;5115;50.920;6.376;2022-10-30T13:26:46;24.20;99.90
10149;DHT22;5115;50.920;6.376;2022-10-30T13:29:37;24.20;99.90
10149;DHT22;5115;50.920;6.376;2022-10-30T13:32:29;24.30;99.90
10149;DHT22;5115;50.920;6.376;2022-10-30T13:35:16;24.10;99.90
10149;DHT22;5115;50.920;6.376;2022-10-30T13:37:51;24.10;99.90
10149;DHT22;5115;50.920;6.376;2022-10-30T13:40:26;24.10;99.90
10149;DHT22;5115;50.920;6.376;2022-10-30T13:48:23;24.00;99.90
10149;DHT22;5115;50.920;6.376;2022-10-30T13:51:04;24.10;99.90
10149;DHT22;5115;50.920;6.376;2022-10-30T13:53:36;24.10;99.90
10149;DHT22;5115;50.920;6.376;2022-10-30T13:56:04;24.20;99.90
10149;DHT22;5115;50.920;6.376;2022-10-30T14:01:16;24.10;99.90
10149;DHT22;5115;50.920;6.376;2022-10-30T14:07:02;24.00;99.90
10149;DHT22;5115;50.920;6.376;2022-10-30T14:10:13;24.10;99.90
10149;DHT22;5115;50.920;6.376;2022-10-30T14:23:35;23.80;99.90
10149;DHT22;5115;50.920;6.376;2022-10-30T14:28:35;24.00;99.90
10149;DHT22;5115;50.920;6.376;2022-10-30T14:31:02;24.10;99.90
10149;DHT22;5115;50.920;6.376;2022-10-30T14:33:48;24.00;99.90
10149;DHT22;5115;50.920;6.376;2022-10-30T14:38:58;23.90;99.90
10149;DHT22;5115;50.920;6.376;2022-10-30T14:41:30;23.90;99.90
10149;DHT22;5115;50.920;6.376;2022-10-30T14:44:09;23.80;99.90
10149;DHT22;5115;50.920;6.376;2022-10-30T14:55:28;23.70;99.90
10149;DHT22;5115;50.920;6.376;2022-10-30T15:03:06;23.70;99.90
10149;DHT22;5115;50.920;6.376;2022-10-30T15:05:50;23.70;99.90
10149;DHT22;5115;50.920;6.376;2022-10-30T15:08:52;23.60;99.90
10149;DHT22;5115;50.920;6.376;2022-10-30T15:14:34;23.60;99.90
10149;DHT22;5115;50.920;6.376;2022-10-30T15:17:01;23.80;99.90
10149;DHT22;5115;50.920;6.376;2022-10-30T15:19:27;23.50;99.90
10149;DHT22;5115;50.920;6.376;2022-10-30T15:21:54;23.50;99.90
10149;DHT22;5115;50.920;6.376;2022-10-30T15:24:25;25.40;99.90
10149;DHT22;5115;50.920;6.376;2022-10-30T15:26:54;25.40;99.90
10149;DHT22;5115;50.920;6.376;2022-10-30T15:29:26;23.30;99.90
10149;DHT22;5115;50.920;6.376;2022-10-30T15:32:01;23.20;99.90
10149;DHT22;5115;50.920;6.376;2022-10-30T15:34:28;23.10;99.90
10149;DHT22;5115;50.920;6.376;2022-10-30T15:36:54;23.80;99.90
10149;DHT22;5115;50.920;6.376;2022-10-30T15:39:20;24.00;99.90
10149;DHT22;5115;50.920;6.376;2022-10-30T15:41:56;22.90;99.90
10149;DHT22;5115;50.920;6.376;2022-10-30T15:44:28;22.80;99.90
10149;DHT22;5115;50.920;6.376;2022-10-30T15:46:56;22.70;99.90
10149;DHT22;5115;50.920;6.376;2022-10-30T15:49:33;22.70;99.90
10149;DHT22;5115;50.920;6.376;2022-10-30T15:52:01;23.20;99.90
10149;DHT22;5115;50.920;6.376;2022-10-30T15:54:28;23.20;99.90
10149;DHT22;5115;50.920;6.376;2022-10-30T15:56:57;22.50;99.90
10149;DHT22;5115;50.920;6.376;2022-10-30T15:59:30;23.80;99.90
10149;DHT22;5115;50.920;6.376;2022-10-30T16:01:59;22.30;99.90
10149;DHT22;5115;50.920;6.376;2022-10-30T16:04:29;22.20;99.90
10149;DHT22;5115;50.920;6.376;2022-10-30T16:06:57;24.10;99.90
10149;DHT22;5115;50.920;6.376;2022-10-30T16:09:24;22.00;99.90
10149;DHT22;5115;50.920;6.376;2022-10-30T16:11:53;23.20;99.90
10149;DHT22;5115;50.920;6.376;2022-10-30T16:14:25;21.90;99.90
10149;DHT22;5115;50.920;6.376;2022-10-30T16:16:51;21.80;99.90
10149;DHT22;5115;50.920;6.376;2022-10-30T16:22:13;20.20;99.90
10149;DHT22;5115;50.920;6.376;2022-10-30T16:24:39;21.50;99.90
10149;DHT22;5115;50.920;6.376;2022-10-30T16:27:13;22.70;99.90
10149;DHT22;5115;50.920;6.376;2022-10-30T16:29:39;21.40;99.90
10149;DHT22;5115;50.920;6.376;2022-10-30T16:32:11;22.10;99.90
10149;DHT22;5115;50.920;6.376;2022-10-30T16:34:39;21.20;99.90
10149;DHT22;5115;50.920;6.376;2022-10-30T16:37:12;21.10;99.90
10149;DHT22;5115;50.920;6.376;2022-10-30T16:39:39;21.10;99.90
10149;DHT22;5115;50.920;6.376;2022-10-30T16:42:05;21.10;99.90
10149;DHT22;5115;50.920;6.376;2022-10-30T16:44:32;22.00;99.90
10149;DHT22;5115;50.920;6.376;2022-10-30T16:49:53;20.90;99.90
10149;DHT22;5115;50.920;6.376;2022-10-30T16:52:26;21.00;99.90
10149;DHT22;5115;50.920;6.376;2022-10-30T16:55:00;20.80;99.90
10149;DHT22;5115;50.920;6.376;2022-10-30T16:57:29;20.80;99.90
10149;DHT22;5115;50.920;6.376;2022-10-30T16:59:56;21.90;99.90
10149;DHT22;5115;50.920;6.376;2022-10-30T17:02:26;20.70;99.90
10149;DHT22;5115;50.920;6.376;2022-10-30T17:04:55;20.60;99.90
10149;DHT22;5115;50.920;6.376;2022-10-30T17:07:24;20.60;99.90
10149;DHT22;5115;50.920;6.376;2022-10-30T17:09:52;20.60;99.90
10149;DHT22;5115;50.920;6.376;2022-10-30T17:12:21;20.50;99.90
10149;DHT22;5115;50.920;6.376;2022-10-30T17:14:50;22.00;99.90
10149;DHT22;5115;50.920;6.376;2022-10-30T17:17:22;20.50;99.90
10149;DHT22;5115;50.920;6.376;2022-10-30T17:19:53;20.50;99.90
10149;DHT22;5115;50.920;6.376;2022-10-30T17:22:19;20.80;99.90
10149;DHT22;5115;50.920;6.376;2022-10-30T17:24:45;20.50;99.90
10149;DHT22;5115;50.920;6.376;2022-10-30T17:27:36;21.70;99.90
10149;DHT22;5115;50.920;6.376;2022-10-30T17:32:56;20.50;99.90
10149;DHT22;5115;50.920;6.376;2022-10-30T17:35:21;20.50;99.90
10149;DHT22;5115;50.920;6.376;2022-10-30T17:37:47;20.40;99.90
10149;DHT22;5115;50.920;6.376;2022-10-30T17:40:13;20.40;99.90
10149;DHT22;5115;50.920;6.376;2022-10-30T17:42:39;20.40;99.90
10149;DHT22;5115;50.920;6.376;2022-10-30T17:45:06;16.30;99.90
10149;DHT22;5115;50.920;6.376;2022-10-30T17:47:35;19.20;99.90
10149;DHT22;5115;50.920;6.376;2022-10-30T17:50:00;20.40;99.90
10149;DHT22;5115;50.920;6.376;2022-10-30T17:52:27;20.40;99.90
10149;DHT22;5115;50.920;6.376;2022-10-30T17:54:53;20.40;99.90
10149;DHT22;5115;50.920;6.376;2022-10-30T17:57:19;20.30;99.90
10149;DHT22;5115;50.920;6.376;2022-10-30T17:59:47;21.30;99.90
10149;DHT22;5115;50.920;6.376;2022-10-30T18:02:20;22.00;99.90
10149;DHT22;5115;50.920;6.376;2022-10-30T18:04:47;20.30;99.90
10149;DHT22;5115;50.920;6.376;2022-10-30T18:07:14;20.20;99.90
10149;DHT22;5115;50.920;6.376;2022-10-30T18:09:41;20.90;99.90
10149;DHT22;5115;50.920;6.376;2022-10-30T18:12:11;20.10;99.90
10149;DHT22;5115;50.920;6.376;2022-10-30T18:14:38;22.00;99.90
10149;DHT22;5115;50.920;6.376;2022-10-30T18:17:04;20.00;99.90